Albion, PA

8:44 AM EDT on May 22, 2015 (GMT -0400)
Ashtabula County | | Change Station
CLOSE
Current Station
Airport
Location: Ashtabula,
Elevation: 922 ft
Nearby Weather Stations
Active Advisory: Freeze Warning

Elev 922 ft 41.78 °N, 80.70 °W | Updated 51 minutes ago

Mostly Cloudy
Mostly Cloudy
50 °F
Feels Like 50 °F
N
7
Wind Variable Wind from WNW

Today
High -- | Low -- °F
--% Chance of Precip.
Yesterday
High -- | Low -- °F
Precip. -- in
5:55 AM 8:41 PM
Waxing Crescent, 21% visible
Pressure 30.08 in
Visibility 10.0 miles
Clouds Few 6500 ft
Mostly Cloudy 11000 ft
Dew Point 41 °F
Humidity 71%
Rainfall 0.00 in
Snow Depth Not available.
UV 1 out of 12
Pollen 8.60 out of 12
Air Quality Not available.
Flu Activity Sporadic
METAR KHZY 221153Z AUTO 29006KT 10SM FEW065 BKN110 10/05 A3008 RMK AO2 SLP186 60000 T01000050 10100 20072 53021

More Conditions Fewer Conditions

Pressure 30.08 in
Visibility 10.0 miles
Clouds Few 6500 ft
Mostly Cloudy 11000 ft
Dew Point 41 °F
Humidity 71%
Rainfall 0.00 in
Snow Depth Not available.
UV 1 out of 12
Pollen 8.60 out of 12
Air Quality Not available.
Flu Activity Sporadic
METAR KHZY 221153Z AUTO 29006KT 10SM FEW065 BKN110 10/05 A3008 RMK AO2 SLP186 60000 T01000050 10100 20072 53021

More Conditions Fewer Conditions

10-Day Weather Forecast

Almanac

Astronomy

May. 22, 2015 Rise Set
Actual Time
Civil Twilight
Nautical Twilight
Astronomical Twilight
Moon
Length of Visible Light
Length of Day
Tomorrow will be .
, % of the Moon is Illuminated

Today's Extremes

State Highs State Lows

Community

WunderPhotos

Upload Photos

1,823,209 photos uploaded!

WunderBlogs® & News

Nearby

Air Quality

  Air Quality AQ Index Pollutant
Not available.

Snow Depth

Station Depth Elevation

Earthquake Activity

City Distance Mag. Time & Date
Minimum magnitude displayed is 2.5.

Coastal Water Temperatures

Place Temperature

Stations

Nearby Weather Stations

Station Location Temp. Windchill Dew Point Humidity Wind Precip. Elev Updated Type
                   
Freeze Warning
Statement as of 3:52 AM EDT on May 22, 2015

... Freeze warning in effect from midnight tonight to 9 am EDT
Saturday...

The National Weather Service in Cleveland has issued a freeze
warning... which is in effect from midnight tonight to 9 am
Saturday.

* Temperatures... lows in the upper 20s and lower 30s.

* Timing... the coldest temperatures will occur around sunrise
Saturday morning.

* Impacts... cold temperatures and frost will likely result in
damage to unprotected tender vegetation.

Precautionary/preparedness actions...

A freeze warning is issued when freezing temperatures are
forecast to threaten outdoor plants. If you are in the warned
area you should protect tender vegetation. Potted plants that are
outdoors should be covered or brought inside to protect from the
cold.